createdAt,value
2019-02-26T00:00:46.993Z,22.87
2019-02-26T00:03:19.423Z,22.97
2019-02-26T00:05:50.232Z,22.97
2019-02-26T00:08:26.598Z,21.77
2019-02-26T00:10:58.584Z,22.40
2019-02-26T00:13:29.591Z,25.10
2019-02-26T00:16:05.606Z,20.67
2019-02-26T00:18:33.090Z,21.23
2019-02-26T00:21:05.003Z,21.97
2019-02-26T00:23:35.554Z,21.50
2019-02-26T00:26:06.157Z,22.60
2019-02-26T00:28:39.104Z,19.53
2019-02-26T00:31:09.594Z,20.60
2019-02-26T00:33:40.578Z,19.87
2019-02-26T00:36:13.226Z,26.47
2019-02-26T00:38:44.663Z,24.17
2019-02-26T00:41:15.497Z,24.30
2019-02-26T00:43:45.851Z,21.53
2019-02-26T00:46:16.593Z,22.50
2019-02-26T00:48:47.830Z,19.67
2019-02-26T00:51:21.031Z,20.67
2019-02-26T00:53:53.333Z,24.87
2019-02-26T00:56:25.228Z,20.73
2019-02-26T00:58:57.310Z,21.43
2019-02-26T01:01:27.942Z,21.63
2019-02-26T01:03:58.489Z,20.87
2019-02-26T01:06:29.431Z,23.03
2019-02-26T01:09:02.017Z,21.57
2019-02-26T01:11:33.257Z,22.07
2019-02-26T01:14:03.649Z,21.93
2019-02-26T01:16:34.474Z,23.20
2019-02-26T01:19:09.071Z,21.53
2019-02-26T01:21:37.928Z,21.37
2019-02-26T01:24:08.661Z,23.03
2019-02-26T01:26:42.691Z,21.03
2019-02-26T01:29:16.066Z,20.03
2019-02-26T01:31:44.116Z,18.43
2019-02-26T01:34:15.785Z,20.97
2019-02-26T01:36:47.776Z,24.53
2019-02-26T01:39:21.012Z,20.70
2019-02-26T01:41:54.083Z,21.93
2019-02-26T01:44:23.349Z,20.23
2019-02-26T01:46:55.450Z,20.33
2019-02-26T01:49:27.949Z,28.37
2019-02-26T01:51:58.038Z,18.60
2019-02-26T01:54:30.490Z,18.10
2019-02-26T01:57:03.323Z,20.57
2019-02-26T01:59:34.665Z,18.57
2019-02-26T02:02:05.153Z,17.37
2019-02-26T02:04:37.086Z,21.83
2019-02-26T02:07:07.801Z,22.13
2019-02-26T02:09:41.117Z,17.13
2019-02-26T02:12:12.614Z,17.77
2019-02-26T02:14:43.387Z,18.80
2019-02-26T02:17:13.826Z,19.00
2019-02-26T02:19:44.332Z,16.63
2019-02-26T02:22:16.723Z,20.87
2019-02-26T02:24:48.563Z,19.23
2019-02-26T02:27:20.280Z,18.07
2019-02-26T02:29:52.968Z,18.97
2019-02-26T02:32:24.140Z,19.23
2019-02-26T02:34:58.305Z,21.07
2019-02-26T02:37:29.422Z,16.80
2019-02-26T02:39:59.686Z,18.40
2019-02-26T02:42:30.363Z,18.30
2019-02-26T02:45:00.776Z,22.07
2019-02-26T02:47:33.943Z,18.73
2019-02-26T02:50:05.570Z,18.13
2019-02-26T02:52:37.893Z,18.63
2019-02-26T02:55:09.875Z,21.47
2019-02-26T02:57:42.306Z,19.20
2019-02-26T03:00:15.859Z,17.93
2019-02-26T03:02:49.381Z,20.73
2019-02-26T03:05:18.831Z,19.40
2019-02-26T03:07:53.499Z,19.53
2019-02-26T03:10:26.046Z,19.30
2019-02-26T03:12:57.677Z,17.53
2019-02-26T03:15:30.027Z,20.40
2019-02-26T03:18:00.850Z,23.27
2019-02-26T03:20:39.243Z,17.97
2019-02-26T03:23:07.161Z,20.60
2019-02-26T03:25:38.209Z,19.90
2019-02-26T03:28:09.374Z,17.83
2019-02-26T03:30:43.890Z,17.47
2019-02-26T03:33:12.540Z,16.27
2019-02-26T03:35:42.957Z,16.70
2019-02-26T03:38:15.379Z,18.87
2019-02-26T03:40:45.813Z,17.77
2019-02-26T03:43:16.519Z,18.83
2019-02-26T03:45:48.003Z,17.33
2019-02-26T03:48:20.317Z,17.23
2019-02-26T03:50:50.691Z,16.17
2019-02-26T03:53:25.574Z,16.73
2019-02-26T03:55:59.621Z,18.97
2019-02-26T03:58:26.311Z,18.57
2019-02-26T04:01:01.708Z,20.03
2019-02-26T04:03:29.568Z,16.10
2019-02-26T04:06:03.118Z,18.77
2019-02-26T04:08:33.539Z,17.73
2019-02-26T04:11:03.953Z,21.40
2019-02-26T04:13:34.314Z,16.87
2019-02-26T04:16:04.795Z,16.87
2019-02-26T04:18:35.263Z,14.87
2019-02-26T04:21:09.185Z,15.03
2019-02-26T04:23:38.826Z,18.27
2019-02-26T04:27:17.432Z,15.87
2019-02-26T04:31:18.091Z,17.83
2019-02-26T04:34:39.220Z,17.53
2019-02-26T04:38:08.827Z,30.43
2019-02-26T04:41:15.892Z,17.23
2019-02-26T04:44:52.924Z,21.13
2019-02-26T04:47:33.497Z,15.23
2019-02-26T04:50:03.886Z,19.53
2019-02-26T04:52:35.757Z,17.07
2019-02-26T04:55:06.851Z,19.57
2019-02-26T04:57:39.358Z,18.33
2019-02-26T05:00:10.484Z,18.17
2019-02-26T05:02:41.372Z,14.30
2019-02-26T05:05:11.681Z,17.73
2019-02-26T05:07:44.486Z,24.13
2019-02-26T05:10:14.240Z,16.67
2019-02-26T05:12:44.700Z,17.20
2019-02-26T05:15:18.031Z,17.83
2019-02-26T05:17:47.118Z,17.40
2019-02-26T05:20:18.983Z,16.83
2019-02-26T05:22:52.049Z,15.53
2019-02-26T05:25:22.940Z,15.70
2019-02-26T05:27:53.316Z,16.13
2019-02-26T05:30:23.675Z,17.00
2019-02-26T05:32:57.015Z,15.77
2019-02-26T05:35:26.292Z,16.23
2019-02-26T05:38:00.357Z,24.27
2019-02-26T05:40:28.772Z,19.37
2019-02-26T05:43:01.270Z,16.57
2019-02-26T05:45:33.070Z,16.47
2019-02-26T05:48:03.364Z,16.67
2019-02-26T05:50:35.442Z,17.20
2019-02-26T05:53:07.617Z,19.13
2019-02-26T05:55:38.453Z,17.87
2019-02-26T05:58:10.081Z,15.30
2019-02-26T06:00:42.409Z,26.23
2019-02-26T06:03:16.330Z,23.67
2019-02-26T06:05:46.494Z,22.47
2019-02-26T06:08:18.141Z,21.10
2019-02-26T06:10:48.606Z,17.13
2019-02-26T06:13:19.723Z,20.67
2019-02-26T06:16:07.747Z,20.10
2019-02-26T06:19:27.475Z,17.67
2019-02-26T06:22:05.997Z,18.27
2019-02-26T06:24:38.097Z,20.10
2019-02-26T06:27:13.119Z,19.40
2019-02-26T06:29:41.195Z,25.20
2019-02-26T06:32:14.328Z,17.87
2019-02-26T06:34:45.126Z,14.50
2019-02-26T06:37:24.030Z,22.07
2019-02-26T06:39:57.909Z,18.90
2019-02-26T06:42:28.426Z,20.30
2019-02-26T06:45:00.280Z,20.83
2019-02-26T06:47:33.198Z,18.30
2019-02-26T06:50:05.565Z,16.50
2019-02-26T06:52:38.198Z,21.10
2019-02-26T06:55:09.224Z,19.53
2019-02-26T06:57:41.469Z,20.87
2019-02-26T07:00:16.233Z,32.90
2019-02-26T07:02:46.446Z,20.30
2019-02-26T07:05:16.961Z,19.47
2019-02-26T07:07:47.400Z,16.93
2019-02-26T07:10:21.548Z,22.10
2019-02-26T07:12:50.599Z,18.13
2019-02-26T07:15:21.183Z,17.80
2019-02-26T07:17:51.791Z,18.97
2019-02-26T07:20:22.288Z,17.93
2019-02-26T07:22:55.065Z,19.87
2019-02-26T07:25:27.806Z,18.80
2019-02-26T07:28:00.646Z,18.57
2019-02-26T07:30:34.698Z,19.77
2019-02-26T07:33:12.150Z,16.80
2019-02-26T07:35:42.813Z,20.17
2019-02-26T07:38:15.676Z,17.97
2019-02-26T07:40:49.827Z,20.47
2019-02-26T07:43:22.523Z,18.20
2019-02-26T07:45:52.602Z,26.87
2019-02-26T07:48:34.764Z,23.07
2019-02-26T07:51:07.646Z,17.07
2019-02-26T07:53:42.021Z,21.40
2019-02-26T07:56:10.504Z,19.13
2019-02-26T07:58:42.957Z,16.07
2019-02-26T08:01:13.202Z,20.73
2019-02-26T08:03:45.975Z,21.10
2019-02-26T08:06:16.262Z,23.43
2019-02-26T08:08:48.512Z,19.73
2019-02-26T08:11:19.071Z,18.93
2019-02-26T08:13:51.711Z,21.87
2019-02-26T08:16:25.842Z,20.20
2019-02-26T08:19:01.208Z,24.20
2019-02-26T08:21:33.323Z,20.60
2019-02-26T08:24:03.797Z,25.77
2019-02-26T08:26:34.176Z,20.50
2019-02-26T08:29:05.671Z,21.70
2019-02-26T08:31:37.668Z,21.07
2019-02-26T08:34:12.665Z,27.17
2019-02-26T08:36:46.208Z,27.47
2019-02-26T08:39:15.887Z,20.93
2019-02-26T08:42:08.679Z,24.10
2019-02-26T08:44:51.310Z,21.83
2019-02-26T08:47:24.818Z,24.98
2019-02-26T08:49:55.499Z,18.70
2019-02-26T08:52:29.304Z,25.30
2019-02-26T08:55:32.779Z,25.50
2019-02-26T08:58:21.179Z,20.87
2019-02-26T09:01:06.091Z,21.70
2019-02-26T09:03:42.455Z,26.73
2019-02-26T09:06:21.312Z,22.93
2019-02-26T09:09:04.573Z,22.87
2019-02-26T09:11:36.981Z,20.27
2019-02-26T09:14:11.522Z,25.80
2019-02-26T09:16:47.664Z,25.87
2019-02-26T09:19:19.010Z,22.83
2019-02-26T09:21:54.745Z,25.37
2019-02-26T09:24:26.117Z,20.10
2019-02-26T09:26:57.430Z,23.53
2019-02-26T09:29:29.012Z,26.53
2019-02-26T09:31:59.875Z,23.60
2019-02-26T09:34:31.674Z,23.10
2019-02-26T09:37:03.516Z,26.27
2019-02-26T09:39:38.639Z,27.73
2019-02-26T09:42:09.173Z,22.50
2019-02-26T09:44:39.991Z,24.47
2019-02-26T09:47:10.295Z,25.17
2019-02-26T09:49:41.108Z,22.40
2019-02-26T09:52:13.694Z,26.43
2019-02-26T09:54:46.340Z,30.80
2019-02-26T09:57:18.102Z,25.53
2019-02-26T09:59:49.613Z,25.67
2019-02-26T10:02:21.942Z,30.53
2019-02-26T10:05:03.967Z,22.13
2019-02-26T10:07:38.750Z,25.00
2019-02-26T10:10:14.148Z,22.47
2019-02-26T10:12:47.235Z,25.13
2019-02-26T10:15:17.785Z,24.83
2019-02-26T10:17:49.809Z,34.07
2019-02-26T10:20:23.273Z,31.40
2019-02-26T10:22:57.170Z,23.53
2019-02-26T10:25:31.037Z,27.23
2019-02-26T10:28:05.805Z,24.33
2019-02-26T10:30:33.947Z,22.97
2019-02-26T10:33:17.648Z,23.87
2019-02-26T10:36:39.964Z,24.97
2019-02-26T10:39:08.548Z,27.33
2019-02-26T10:41:41.385Z,26.80
2019-02-26T10:44:11.797Z,28.43
2019-02-26T10:46:44.423Z,22.93
2019-02-26T10:49:14.582Z,29.90
2019-02-26T10:51:45.291Z,26.97
2019-02-26T10:54:18.084Z,21.23
2019-02-26T10:56:50.048Z,25.23
2019-02-26T10:59:20.744Z,27.97
2019-02-26T11:01:55.272Z,26.57
2019-02-26T11:04:34.424Z,26.10
2019-02-26T11:06:59.110Z,22.13
2019-02-26T11:09:31.873Z,23.93
2019-02-26T11:12:05.144Z,25.47
2019-02-26T11:14:36.404Z,20.60
2019-02-26T11:17:07.327Z,24.50
2019-02-26T11:19:39.599Z,23.13
2019-02-26T11:22:10.482Z,23.50
2019-02-26T11:24:42.684Z,22.90
2019-02-26T11:27:13.704Z,22.10
2019-02-26T11:29:44.052Z,22.40
2019-02-26T11:32:15.545Z,22.43
2019-02-26T11:34:46.808Z,23.80
2019-02-26T11:37:20.144Z,23.43
2019-02-26T11:39:51.908Z,20.03
2019-02-26T11:42:24.171Z,24.30
2019-02-26T11:44:54.568Z,21.93
2019-02-26T11:47:26.121Z,22.03
2019-02-26T11:49:59.676Z,24.30
2019-02-26T11:55:31.381Z,19.87
2019-02-26T11:58:00.433Z,21.30
2019-02-26T12:00:42.774Z,20.00
2019-02-26T12:03:15.545Z,18.13
2019-02-26T12:05:46.796Z,20.43
2019-02-26T12:08:22.848Z,19.77
2019-02-26T12:11:01.160Z,23.00
2019-02-26T12:13:30.834Z,23.27
2019-02-26T12:16:04.912Z,24.37
2019-02-26T12:18:36.836Z,19.77
2019-02-26T12:21:08.005Z,19.53
2019-02-26T12:23:41.663Z,22.10
2019-02-26T12:26:12.157Z,19.93
2019-02-26T12:28:46.080Z,19.67
2019-02-26T12:31:18.184Z,23.27
2019-02-26T12:33:48.588Z,21.33
2019-02-26T12:36:21.219Z,17.97
2019-02-26T12:38:59.186Z,19.40
2019-02-26T12:41:29.585Z,23.33
2019-02-26T12:44:02.266Z,17.97
2019-02-26T12:46:35.742Z,22.83
2019-02-26T12:49:12.671Z,21.60
2019-02-26T12:51:44.042Z,19.97
2019-02-26T12:54:15.697Z,19.87
2019-02-26T12:56:52.319Z,18.73
2019-02-26T12:59:26.768Z,18.37
2019-02-26T13:01:57.464Z,19.00
2019-02-26T13:04:32.299Z,18.43
2019-02-26T13:07:05.441Z,17.30
2019-02-26T13:09:39.136Z,19.73
2019-02-26T13:12:08.500Z,15.73
2019-02-26T13:14:43.632Z,17.13
2019-02-26T13:17:17.329Z,19.03
2019-02-26T13:19:49.111Z,17.20
2019-02-26T13:22:20.307Z,14.37
2019-02-26T13:24:50.984Z,19.23
2019-02-26T13:27:21.683Z,17.20
2019-02-26T13:29:56.954Z,18.87
2019-02-26T13:32:32.128Z,18.90
2019-02-26T13:35:01.037Z,18.13
2019-02-26T13:37:35.292Z,17.47
2019-02-26T13:40:05.510Z,17.27
2019-02-26T13:42:35.981Z,16.77
2019-02-26T13:45:08.567Z,18.20
2019-02-26T13:47:38.941Z,22.83
2019-02-26T13:50:12.785Z,16.57
2019-02-26T13:52:46.472Z,17.07
2019-02-26T13:55:16.945Z,17.70
2019-02-26T13:57:51.274Z,18.47
2019-02-26T14:00:26.510Z,17.77
2019-02-26T14:02:54.116Z,20.27
2019-02-26T14:05:24.727Z,18.20
2019-02-26T14:07:55.538Z,19.17
2019-02-26T14:10:25.955Z,16.87
2019-02-26T14:12:59.457Z,19.63
2019-02-26T14:15:30.097Z,19.50
2019-02-26T14:18:00.536Z,18.87
2019-02-26T14:20:31.246Z,19.77
2019-02-26T14:23:02.821Z,20.20
2019-02-26T14:25:36.811Z,20.80
2019-02-26T14:28:10.216Z,55.50
2019-02-26T14:30:44.676Z,28.57
2019-02-26T14:33:17.893Z,20.07
2019-02-26T14:35:51.455Z,24.03
2019-02-26T14:38:24.423Z,21.63
2019-02-26T14:41:02.238Z,18.13
2019-02-26T14:43:33.007Z,19.87
2019-02-26T14:46:03.413Z,24.00
2019-02-26T14:48:34.231Z,20.80
2019-02-26T14:51:04.832Z,21.30
2019-02-26T14:53:35.930Z,21.37
2019-02-26T14:56:06.776Z,23.33
2019-02-26T14:58:37.353Z,22.67
2019-02-26T15:01:07.722Z,20.17
2019-02-26T15:03:38.713Z,22.23
2019-02-26T15:06:12.684Z,17.27
2019-02-26T15:08:44.734Z,19.63
2019-02-26T15:11:15.520Z,20.20
2019-02-26T15:13:46.195Z,22.47
2019-02-26T15:16:19.268Z,21.83
2019-02-26T15:18:51.340Z,19.17
2019-02-26T15:21:21.751Z,24.80
2019-02-26T15:23:54.460Z,20.17
2019-02-26T15:26:25.174Z,19.27
2019-02-26T15:29:02.075Z,19.00
2019-02-26T15:31:33.097Z,24.70
2019-02-26T15:34:05.769Z,18.93
2019-02-26T15:36:50.016Z,26.00
2019-02-26T15:39:35.505Z,22.43
2019-02-26T15:42:05.954Z,19.00
2019-02-26T15:44:39.458Z,22.20
2019-02-26T15:47:12.401Z,22.97
2019-02-26T15:49:45.184Z,21.07
2019-02-26T15:52:15.906Z,23.40
2019-02-26T15:54:46.371Z,25.87
2019-02-26T15:57:16.790Z,20.43
2019-02-26T15:59:47.444Z,19.73
2019-02-26T16:02:17.889Z,22.13
2019-02-26T16:04:48.441Z,17.97
2019-02-26T16:07:23.761Z,23.20
2019-02-26T16:09:54.650Z,21.53
2019-02-26T16:12:30.899Z,24.57
2019-02-26T16:15:03.196Z,21.53
2019-02-26T16:17:36.876Z,20.90
2019-02-26T16:20:14.549Z,22.43
2019-02-26T16:22:46.718Z,20.97
2019-02-26T16:25:20.686Z,22.50
2019-02-26T16:27:54.482Z,22.07
2019-02-26T16:30:25.093Z,25.30
2019-02-26T16:32:58.293Z,25.33
2019-02-26T16:35:28.822Z,23.97
2019-02-26T16:37:59.308Z,23.27
2019-02-26T16:40:32.249Z,25.13
2019-02-26T16:43:02.154Z,27.37
2019-02-26T16:45:35.322Z,25.27
2019-02-26T16:48:07.295Z,24.33
2019-02-26T16:50:37.819Z,22.37
2019-02-26T16:53:12.110Z,24.50
2019-02-26T16:55:42.671Z,24.63
2019-02-26T16:58:13.262Z,27.73
2019-02-26T17:00:48.895Z,28.03
2019-02-26T17:03:19.067Z,26.40
2019-02-26T17:05:49.924Z,25.93
2019-02-26T17:08:22.576Z,24.20
2019-02-26T17:10:53.699Z,23.83
2019-02-26T17:13:24.139Z,26.83
2019-02-26T17:15:59.264Z,24.97
2019-02-26T17:18:27.881Z,25.47
2019-02-26T17:20:58.288Z,26.23
2019-02-26T17:23:28.866Z,28.63
2019-02-26T17:26:00.589Z,24.13
2019-02-26T17:28:32.705Z,27.97
2019-02-26T17:31:07.040Z,27.73
2019-02-26T17:33:37.493Z,34.00
2019-02-26T17:36:08.792Z,27.63
2019-02-26T17:38:39.760Z,28.07
2019-02-26T17:41:14.509Z,26.47
2019-02-26T17:43:46.780Z,28.23
2019-02-26T17:46:17.411Z,30.33
2019-02-26T17:48:48.580Z,34.00
2019-02-26T17:51:22.756Z,28.47
2019-02-26T17:54:03.955Z,27.13
2019-02-26T17:56:36.199Z,26.40
2019-02-26T17:59:08.407Z,26.90
2019-02-26T18:01:41.102Z,29.80
2019-02-26T18:04:14.156Z,40.07
2019-02-26T18:06:46.044Z,31.03
2019-02-26T18:09:16.574Z,24.43
2019-02-26T18:11:47.018Z,26.10
2019-02-26T18:14:17.607Z,32.97
2019-02-26T18:16:48.199Z,26.20
2019-02-26T18:19:21.422Z,24.23
2019-02-26T18:21:51.870Z,25.40
2019-02-26T18:24:22.246Z,28.43
2019-02-26T18:26:53.401Z,28.83
2019-02-26T18:29:25.664Z,27.03
2019-02-26T18:31:56.063Z,28.90
2019-02-26T18:34:26.445Z,26.53
2019-02-26T18:37:01.319Z,40.47
2019-02-26T18:39:33.896Z,28.90
2019-02-26T18:42:17.331Z,27.77
2019-02-26T18:44:56.732Z,35.77
2019-02-26T18:47:29.478Z,30.73
2019-02-26T18:50:00.444Z,24.23
2019-02-26T18:52:30.957Z,30.83
2019-02-26T18:55:01.459Z,24.47
2019-02-26T18:57:34.137Z,29.30
2019-02-26T19:00:08.602Z,29.40
2019-02-26T19:02:39.137Z,29.20
2019-02-26T19:05:10.040Z,26.70
2019-02-26T19:07:41.493Z,28.20
2019-02-26T19:10:19.437Z,30.07
2019-02-26T19:12:48.198Z,25.53
2019-02-26T19:15:19.827Z,27.73
2019-02-26T19:17:56.884Z,26.73
2019-02-26T19:20:31.881Z,32.87
2019-02-26T19:23:02.389Z,33.07
2019-02-26T19:25:34.871Z,30.53
2019-02-26T19:28:05.349Z,26.13
2019-02-26T19:30:39.245Z,23.67
2019-02-26T19:33:11.573Z,34.77
2019-02-26T19:35:42.286Z,35.27
2019-02-26T19:38:13.178Z,34.63
2019-02-26T19:40:46.847Z,32.40
2019-02-26T19:43:17.281Z,32.27
2019-02-26T19:45:48.125Z,35.43
2019-02-26T19:48:18.829Z,28.73
2019-02-26T19:50:49.336Z,29.90
2019-02-26T19:53:19.705Z,39.03
2019-02-26T19:55:50.338Z,32.47
2019-02-26T19:58:25.275Z,30.57
2019-02-26T20:00:56.111Z,31.27
2019-02-26T20:03:39.271Z,30.60
2019-02-26T20:05:59.074Z,28.80
2019-02-26T20:08:30.158Z,30.77
2019-02-26T20:11:03.486Z,29.43
2019-02-26T20:13:34.605Z,30.30
2019-02-26T20:16:05.309Z,27.60
2019-02-26T20:18:35.856Z,30.17
2019-02-26T20:21:06.612Z,38.53
2019-02-26T20:23:41.830Z,32.13
2019-02-26T20:26:16.070Z,31.37
2019-02-26T20:28:50.453Z,32.33
2019-02-26T20:31:23.526Z,29.53
2019-02-26T20:33:54.071Z,30.50
2019-02-26T20:36:27.903Z,29.27
2019-02-26T20:38:58.374Z,30.83
2019-02-26T20:41:28.733Z,31.60
2019-02-26T20:44:01.822Z,27.97
2019-02-26T20:46:32.368Z,30.07
2019-02-26T20:49:02.944Z,36.37
2019-02-26T20:51:41.043Z,32.67
2019-02-26T20:54:13.931Z,32.80
2019-02-26T20:56:49.225Z,31.30
2019-02-26T20:59:21.479Z,34.83
2019-02-26T21:01:51.926Z,37.57
2019-02-26T21:04:22.447Z,30.13
2019-02-26T21:06:52.946Z,33.37
2019-02-26T21:09:23.387Z,32.13
2019-02-26T21:11:55.830Z,29.07
2019-02-26T21:14:30.193Z,34.03
2019-02-26T21:17:00.697Z,30.00
2019-02-26T21:19:35.595Z,31.47
2019-02-26T21:22:08.554Z,32.77
2019-02-26T21:24:39.405Z,28.30
2019-02-26T21:27:13.009Z,36.30
2019-02-26T21:29:43.525Z,39.30
2019-02-26T21:32:14.112Z,33.93
2019-02-26T21:34:47.384Z,38.63
2019-02-26T21:37:20.298Z,37.67
2019-02-26T21:39:56.638Z,38.67
2019-02-26T21:42:29.605Z,35.30
2019-02-26T21:45:02.167Z,34.77
2019-02-26T21:47:32.952Z,33.80
2019-02-26T21:50:06.874Z,33.43
2019-02-26T21:52:39.759Z,38.50
2019-02-26T21:55:09.902Z,38.97
2019-02-26T21:57:43.818Z,47.07
2019-02-26T22:00:16.869Z,37.77
2019-02-26T22:02:51.859Z,38.80
2019-02-26T22:05:19.484Z,38.93
2019-02-26T22:07:52.386Z,38.00
2019-02-26T22:10:22.542Z,34.10
2019-02-26T22:12:56.640Z,39.07
2019-02-26T22:15:25.495Z,37.67
2019-02-26T22:17:58.207Z,38.37
2019-02-26T22:20:36.263Z,37.17
2019-02-26T22:23:01.140Z,37.30
2019-02-26T22:25:31.805Z,35.07
2019-02-26T22:28:02.206Z,38.37
2019-02-26T22:30:32.592Z,35.60
2019-02-26T22:33:03.216Z,33.70
2019-02-26T22:35:33.813Z,33.03
2019-02-26T22:38:04.522Z,33.13
2019-02-26T22:40:37.100Z,34.13
2019-02-26T22:43:07.399Z,34.60
2019-02-26T22:45:37.881Z,35.50
2019-02-26T22:48:13.467Z,32.80
2019-02-26T22:50:41.432Z,33.80
2019-02-26T22:53:12.245Z,35.63
2019-02-26T22:55:42.690Z,37.73
2019-02-26T22:58:15.828Z,31.40
2019-02-26T23:01:18.585Z,31.37
2019-02-26T23:03:49.035Z,31.37
2019-02-26T23:06:19.654Z,32.10
2019-02-26T23:08:53.325Z,31.13
2019-02-26T23:11:24.003Z,34.30
2019-02-26T23:13:54.746Z,30.70
2019-02-26T23:16:25.768Z,33.50
2019-02-26T23:18:57.327Z,35.97
2019-02-26T23:21:28.537Z,34.27
2019-02-26T23:23:59.412Z,34.07
2019-02-26T23:26:29.930Z,34.57
2019-02-26T23:29:00.600Z,33.03
2019-02-26T23:31:32.888Z,33.23
2019-02-26T23:34:03.785Z,36.90
2019-02-26T23:36:34.199Z,36.60
2019-02-26T23:39:07.183Z,42.20
2019-02-26T23:41:41.726Z,40.47
2019-02-26T23:44:12.288Z,33.33
2019-02-26T23:46:49.015Z,35.30
2019-02-26T23:49:19.454Z,36.07
2019-02-26T23:51:50.951Z,34.87
2019-02-26T23:54:22.582Z,30.43
2019-02-26T23:56:56.153Z,34.80
2019-02-26T23:59:26.515Z,32.97
